Time,TemperatureF,DewpointF,PressureIn,WindDirection,WindDirectionDegrees,WindSpeedMPH,WindSpeedGustMPH,Humidity,HourlyPrecipIn,Conditions,Clouds,dailyrainin,SoftwareType,DateUTC
2013-10-18 00:03:00,47.7,44.0,29.73,SW,236,7.0,-999.0,87,-99.99,,,0.00,weatherlink.com 1.10,2013-10-18 04:03:00,
2013-10-18 00:18:00,47.6,44.0,29.73,SW,230,6.0,-999.0,87,-99.99,,,0.00,weatherlink.com 1.10,2013-10-18 04:18:00,
2013-10-18 00:33:00,47.6,44.0,29.72,South,182,10.0,-999.0,87,-99.99,,,0.00,weatherlink.com 1.10,2013-10-18 04:33:00,
2013-10-18 00:48:00,47.6,44.0,29.72,SW,217,6.0,-999.0,86,-99.99,,,0.00,weatherlink.com 1.10,2013-10-18 04:48:00,
2013-10-18 01:03:00,47.6,43.0,29.73,WSW,256,11.0,-999.0,85,-99.99,,,0.00,weatherlink.com 1.10,2013-10-18 05:03:00,
2013-10-18 01:18:00,47.4,43.0,29.73,SSW,210,0.0,-999.0,85,-99.99,,,0.00,weatherlink.com 1.10,2013-10-18 05:18:00,
2013-10-18 01:33:00,47.1,43.0,29.73,SSW,208,1.0,-999.0,86,-99.99,,,0.00,weatherlink.com 1.10,2013-10-18 05:33:00,
2013-10-18 01:48:00,47.0,43.0,29.73,WSW,243,6.0,-999.0,86,-99.99,,,0.00,weatherlink.com 1.10,2013-10-18 05:48:00,
2013-10-18 02:03:00,47.1,43.0,29.74,SW,232,6.0,-999.0,86,-99.99,,,0.00,weatherlink.com 1.10,2013-10-18 06:03:00,
2013-10-18 02:18:00,47.1,43.0,29.73,South,176,7.0,-999.0,85,-99.99,,,0.00,weatherlink.com 1.10,2013-10-18 06:18:00,
2013-10-18 02:33:00,47.3,43.0,29.74,WSW,237,0.0,-999.0,85,-99.99,,,0.00,weatherlink.com 1.10,2013-10-18 06:33:00,
2013-10-18 02:48:00,47.1,43.0,29.75,SW,216,1.0,-999.0,86,-99.99,,,0.00,weatherlink.com 1.10,2013-10-18 06:48:00,
2013-10-18 03:03:00,47.0,43.0,29.75,South,179,0.0,-999.0,87,-99.99,,,0.00,weatherlink.com 1.10,2013-10-18 07:03:00,
2013-10-18 03:18:00,47.0,44.0,29.75,West,263,0.0,-999.0,88,-99.99,,,0.00,weatherlink.com 1.10,2013-10-18 07:18:00,
2013-10-18 03:33:00,46.8,44.0,29.75,WSW,257,7.0,-999.0,89,-99.99,,,0.00,weatherlink.com 1.10,2013-10-18 07:33:00,
2013-10-18 03:48:00,46.7,44.0,29.77,WNW,295,2.0,-999.0,89,-99.99,,,0.00,weatherlink.com 1.10,2013-10-18 07:48:00,
2013-10-18 04:03:00,46.5,44.0,29.78,SSW,206,2.0,-999.0,90,-99.99,,,0.00,weatherlink.com 1.10,2013-10-18 08:03:00,
2013-10-18 04:18:00,46.4,44.0,29.78,WSW,258,0.0,-999.0,91,-99.99,,,0.00,weatherlink.com 1.10,2013-10-18 08:18:00,
2013-10-18 04:33:00,46.2,44.0,29.79,SW,222,2.0,-999.0,91,-99.99,,,0.00,weatherlink.com 1.10,2013-10-18 08:33:00,
2013-10-18 04:48:00,46.1,44.0,29.79,SW,229,3.0,-999.0,91,-99.99,,,0.00,weatherlink.com 1.10,2013-10-18 08:48:00,
2013-10-18 05:03:00,46.0,44.0,29.79,SSW,200,0.0,-999.0,92,-99.99,,,0.00,weatherlink.com 1.10,2013-10-18 09:03:00,
2013-10-18 05:18:00,45.8,44.0,29.79,SSW,203,3.0,-999.0,92,-99.99,,,0.00,weatherlink.com 1.10,2013-10-18 09:18:00,
2013-10-18 05:33:00,45.8,44.0,29.80,South,182,6.0,-999.0,92,-99.99,,,0.00,weatherlink.com 1.10,2013-10-18 09:33:00,
2013-10-18 05:48:00,45.7,44.0,29.80,WSW,241,5.0,-999.0,92,-99.99,,,0.00,weatherlink.com 1.10,2013-10-18 09:48:00,
2013-10-18 06:03:00,45.7,44.0,29.80,SW,215,1.0,-999.0,92,-99.99,,,0.00,weatherlink.com 1.10,2013-10-18 10:03:00,
2013-10-18 06:18:00,45.7,44.0,29.81,SW,232,0.0,-999.0,92,-99.99,,,0.00,weatherlink.com 1.10,2013-10-18 10:18:00,
2013-10-18 06:33:00,45.5,43.0,29.81,SW,233,0.0,-999.0,92,-99.99,,,0.00,weatherlink.com 1.10,2013-10-18 10:33:00,
2013-10-18 06:48:00,45.5,43.0,29.81,SW,236,0.0,-999.0,92,-99.99,,,0.00,weatherlink.com 1.10,2013-10-18 10:48:00,
2013-10-18 07:03:00,45.5,43.0,29.82,SW,220,0.0,-999.0,92,-99.99,,,0.00,weatherlink.com 1.10,2013-10-18 11:03:00,
2013-10-18 07:18:00,45.5,43.0,29.82,SW,216,0.0,-999.0,92,-99.99,,,0.00,weatherlink.com 1.10,2013-10-18 11:18:00,
2013-10-18 07:33:00,45.4,43.0,29.83,WSW,243,0.0,-999.0,92,-99.99,,,0.00,weatherlink.com 1.10,2013-10-18 11:33:00,
2013-10-18 07:48:00,45.2,43.0,29.83,SW,226,2.0,-999.0,92,-99.99,,,0.00,weatherlink.com 1.10,2013-10-18 11:48:00,
2013-10-18 08:03:00,45.2,43.0,29.83,SW,229,0.0,-999.0,92,-99.99,,,0.00,weatherlink.com 1.10,2013-10-18 12:03:00,
2013-10-18 08:18:00,45.2,43.0,29.83,SW,215,2.0,-999.0,92,-99.99,,,0.00,weatherlink.com 1.10,2013-10-18 12:18:00,
2013-10-18 08:33:00,45.1,43.0,29.84,SW,234,11.0,-999.0,91,-99.99,,,0.00,weatherlink.com 1.10,2013-10-18 12:33:00,
2013-10-18 08:48:00,44.9,42.0,29.84,SW,224,5.0,-999.0,90,-99.99,,,0.00,weatherlink.com 1.10,2013-10-18 12:48:00,
2013-10-18 09:03:00,45.2,42.0,29.85,WSW,250,6.0,-999.0,89,-99.99,,,0.00,weatherlink.com 1.10,2013-10-18 13:03:00,
2013-10-18 09:18:00,45.8,43.0,29.86,South,182,7.0,-999.0,89,-99.99,,,0.00,weatherlink.com 1.10,2013-10-18 13:18:00,
2013-10-18 09:33:00,46.4,43.0,29.86,SSW,212,2.0,-999.0,87,-99.99,,,0.00,weatherlink.com 1.10,2013-10-18 13:33:00,
2013-10-18 09:48:00,47.3,43.0,29.86,SW,216,2.0,-999.0,84,-99.99,,,0.00,weatherlink.com 1.10,2013-10-18 13:48:00,
2013-10-18 10:03:00,48.0,42.0,29.86,SW,227,1.0,-999.0,81,-99.99,,,0.00,weatherlink.com 1.10,2013-10-18 14:03:00,
2013-10-18 10:18:00,49.2,42.0,29.86,South,179,3.0,-999.0,77,-99.99,,,0.00,weatherlink.com 1.10,2013-10-18 14:18:00,
2013-10-18 10:33:00,50.4,42.0,29.87,WSW,243,13.0,-999.0,72,-99.99,,,0.00,weatherlink.com 1.10,2013-10-18 14:33:00,
2013-10-18 10:48:00,51.4,42.0,29.87,SW,233,3.0,-999.0,69,-99.99,,,0.00,weatherlink.com 1.10,2013-10-18 14:48:00,
2013-10-18 11:03:00,52.2,38.0,29.87,SSE,155,1.0,-999.0,60,-99.99,,,0.00,weatherlink.com 1.10,2013-10-18 15:03:00,
2013-10-18 11:18:00,53.5,40.0,29.87,WSW,253,2.0,-999.0,61,-99.99,,,0.00,weatherlink.com 1.10,2013-10-18 15:18:00,
2013-10-18 11:33:00,53.6,39.0,29.87,WSW,246,8.0,-999.0,59,-99.99,,,0.00,weatherlink.com 1.10,2013-10-18 15:33:00,
2013-10-18 11:48:00,54.5,41.0,29.87,WNW,289,0.0,-999.0,60,-99.99,,,0.00,weatherlink.com 1.10,2013-10-18 15:48:00,
2013-10-18 12:03:00,55.1,41.0,29.86,SSW,212,2.0,-999.0,59,-99.99,,,0.00,weatherlink.com 1.10,2013-10-18 16:03:00,
2013-10-18 12:18:00,55.3,40.0,29.86,SSW,202,5.0,-999.0,57,-99.99,,,0.00,weatherlink.com 1.10,2013-10-18 16:18:00,
2013-10-18 12:33:00,55.7,40.0,29.86,WNW,292,0.0,-999.0,56,-99.99,,,0.00,weatherlink.com 1.10,2013-10-18 16:33:00,
2013-10-18 12:48:00,56.5,41.0,29.86,WSW,257,3.0,-999.0,57,-99.99,,,0.00,weatherlink.com 1.10,2013-10-18 16:48:00,
2013-10-18 13:03:00,57.0,41.0,29.85,WNW,287,2.0,-999.0,55,-99.99,,,0.00,weatherlink.com 1.10,2013-10-18 17:03:00,
2013-10-18 13:18:00,57.2,40.0,29.85,WNW,295,0.0,-999.0,54,-99.99,,,0.00,weatherlink.com 1.10,2013-10-18 17:18:00,
2013-10-18 13:33:00,57.8,41.0,29.84,SW,229,1.0,-999.0,53,-99.99,,,0.00,weatherlink.com 1.10,2013-10-18 17:33:00,
2013-10-18 13:48:00,58.6,41.0,29.84,WSW,253,0.0,-999.0,52,-99.99,,,0.00,weatherlink.com 1.10,2013-10-18 17:48:00,
2013-10-18 14:03:00,57.8,41.0,29.84,West,275,4.0,-999.0,53,-99.99,,,0.00,weatherlink.com 1.10,2013-10-18 18:03:00,
2013-10-18 14:18:00,57.8,41.0,29.84,West,270,11.0,-999.0,53,-99.99,,,0.00,weatherlink.com 1.10,2013-10-18 18:18:00,
2013-10-18 14:33:00,58.0,40.0,29.83,SSW,198,0.0,-999.0,52,-99.99,,,0.00,weatherlink.com 1.10,2013-10-18 18:33:00,
2013-10-18 14:48:00,56.7,40.0,29.83,WSW,256,2.0,-999.0,54,-99.99,,,0.00,weatherlink.com 1.10,2013-10-18 18:48:00,
2013-10-18 15:03:00,57.5,39.0,29.83,South,189,0.0,-999.0,51,-99.99,,,0.00,weatherlink.com 1.10,2013-10-18 19:03:00,
2013-10-18 15:18:00,57.5,40.0,29.83,SW,220,5.0,-999.0,53,-99.99,,,0.00,weatherlink.com 1.10,2013-10-18 19:18:00,
2013-10-18 15:33:00,58.3,39.0,29.82,WSW,258,1.0,-999.0,49,-99.99,,,0.00,weatherlink.com 1.10,2013-10-18 19:33:00,
2013-10-18 15:48:00,59.0,39.0,29.82,WSW,254,5.0,-999.0,47,-99.99,,,0.00,weatherlink.com 1.10,2013-10-18 19:48:00,
2013-10-18 16:03:00,58.6,40.0,29.82,WSW,239,1.0,-999.0,51,-99.99,,,0.00,weatherlink.com 1.10,2013-10-18 20:03:00,
2013-10-18 16:18:00,60.2,39.0,29.82,SW,236,17.0,-999.0,45,-99.99,,,0.00,weatherlink.com 1.10,2013-10-18 20:18:00,
2013-10-18 16:33:00,60.2,39.0,29.81,SSW,203,0.0,-999.0,46,-99.99,,,0.00,weatherlink.com 1.10,2013-10-18 20:33:00,
2013-10-18 16:48:00,60.4,39.0,29.81,West,261,5.0,-999.0,45,-99.99,,,0.00,weatherlink.com 1.10,2013-10-18 20:48:00,
2013-10-18 17:03:00,60.1,39.0,29.81,SSW,203,3.0,-999.0,45,-99.99,,,0.00,weatherlink.com 1.10,2013-10-18 21:03:00,
2013-10-18 17:18:00,59.0,39.0,29.81,West,267,4.0,-999.0,48,-99.99,,,0.00,weatherlink.com 1.10,2013-10-18 21:18:00,
2013-10-18 17:33:00,58.3,40.0,29.82,SW,236,0.0,-999.0,50,-99.99,,,0.00,weatherlink.com 1.10,2013-10-18 21:33:00,
2013-10-18 17:48:00,57.0,40.0,29.82,SW,232,0.0,-999.0,53,-99.99,,,0.00,weatherlink.com 1.10,2013-10-18 21:48:00,
2013-10-18 18:03:00,55.9,40.0,29.82,WSW,248,0.0,-999.0,56,-99.99,,,0.00,weatherlink.com 1.10,2013-10-18 22:03:00,
2013-10-18 18:18:00,55.1,41.0,29.82,South,191,1.0,-999.0,59,-99.99,,,0.00,weatherlink.com 1.10,2013-10-18 22:18:00,
2013-10-18 18:33:00,54.2,40.0,29.82,SSW,202,0.0,-999.0,60,-99.99,,,0.00,weatherlink.com 1.10,2013-10-18 22:33:00,
2013-10-18 18:48:00,53.3,41.0,29.83,SSW,193,0.0,-999.0,63,-99.99,,,0.00,weatherlink.com 1.10,2013-10-18 22:48:00,
2013-10-18 19:03:00,52.9,40.0,29.83,SSW,195,0.0,-999.0,63,-99.99,,,0.00,weatherlink.com 1.10,2013-10-18 23:03:00,
2013-10-18 19:18:00,52.3,41.0,29.83,SSW,198,0.0,-999.0,65,-99.99,,,0.00,weatherlink.com 1.10,2013-10-18 23:18:00,
2013-10-18 19:33:00,51.7,42.0,29.83,SSW,198,0.0,-999.0,70,-99.99,,,0.00,weatherlink.com 1.10,2013-10-18 23:33:00,
2013-10-18 19:48:00,50.7,42.0,29.83,SSW,198,0.0,-999.0,71,-99.99,,,0.00,weatherlink.com 1.10,2013-10-18 23:48:00,
2013-10-18 20:03:00,50.2,41.0,29.83,SSW,198,0.0,-999.0,71,-99.99,,,0.00,weatherlink.com 1.10,2013-10-19 00:03:00,
2013-10-18 20:18:00,50.1,41.0,29.84,SSW,198,0.0,-999.0,71,-99.99,,,0.00,weatherlink.com 1.10,2013-10-19 00:18:00,
2013-10-18 20:33:00,50.4,41.0,29.84,SSW,205,2.0,-999.0,69,-99.99,,,0.00,weatherlink.com 1.10,2013-10-19 00:33:00,
2013-10-18 20:48:00,51.0,41.0,29.84,SSW,203,0.0,-999.0,68,-99.99,,,0.00,weatherlink.com 1.10,2013-10-19 00:48:00,
2013-10-18 21:03:00,51.1,40.0,29.84,SW,227,1.0,-999.0,67,-99.99,,,0.00,weatherlink.com 1.10,2013-10-19 01:03:00,
2013-10-18 21:18:00,51.0,40.0,29.84,SSE,167,0.0,-999.0,67,-99.99,,,0.00,weatherlink.com 1.10,2013-10-19 01:18:00,
2013-10-18 21:33:00,51.0,40.0,29.84,SSW,206,2.0,-999.0,67,-99.99,,,0.00,weatherlink.com 1.10,2013-10-19 01:33:00,
2013-10-18 21:48:00,51.0,40.0,29.84,SW,227,0.0,-999.0,66,-99.99,,,0.00,weatherlink.com 1.10,2013-10-19 01:48:00,
2013-10-18 22:03:00,51.0,40.0,29.84,SW,230,8.0,-999.0,66,-99.99,,,0.00,weatherlink.com 1.10,2013-10-19 02:03:00,
2013-10-18 22:18:00,50.8,40.0,29.84,SW,227,5.0,-999.0,66,-99.99,,,0.00,weatherlink.com 1.10,2013-10-19 02:18:00,
2013-10-18 22:33:00,50.5,40.0,29.84,SSW,209,1.0,-999.0,67,-99.99,,,0.00,weatherlink.com 1.10,2013-10-19 02:33:00,
2013-10-18 22:48:00,50.4,40.0,29.84,SW,215,0.0,-999.0,67,-99.99,,,0.00,weatherlink.com 1.10,2013-10-19 02:48:00,
2013-10-18 23:03:00,50.4,40.0,29.84,South,188,1.0,-999.0,67,-99.99,,,0.00,weatherlink.com 1.10,2013-10-19 03:03:00,
2013-10-18 23:18:00,50.1,39.0,29.83,South,172,11.0,-999.0,67,-99.99,,,0.00,weatherlink.com 1.10,2013-10-19 03:18:00,
2013-10-18 23:33:00,50.1,39.0,29.83,SSW,202,0.0,-999.0,67,-99.99,,,0.00,weatherlink.com 1.10,2013-10-19 03:33:00,
2013-10-18 23:48:00,50.1,39.0,29.83,SW,222,6.0,-999.0,67,-99.99,,,0.00,weatherlink.com 1.10,2013-10-19 03:48:00,